sensor_id;sensor_type;location;lat;lon;timestamp;pressure;altitude;pressure_sealevel;temperature;humidity
9784;BME280;4931;44.874;-1.092;2023-04-09T00:00:34;101636.22;;;9.67;100.00
9784;BME280;4931;44.874;-1.092;2023-04-09T00:03:00;101637.59;;;9.47;100.00
9784;BME280;4931;44.874;-1.092;2023-04-09T00:05:25;101637.09;;;9.34;100.00
9784;BME280;4931;44.874;-1.092;2023-04-09T00:07:51;101633.78;;;9.49;100.00
9784;BME280;4931;44.874;-1.092;2023-04-09T00:10:17;101625.38;;;9.55;100.00
9784;BME280;4931;44.874;-1.092;2023-04-09T00:12:43;101627.94;;;9.62;100.00
9784;BME280;4931;44.874;-1.092;2023-04-09T00:15:08;101632.34;;;9.63;100.00
9784;BME280;4931;44.874;-1.092;2023-04-09T00:17:34;101636.75;;;9.64;100.00
9784;BME280;4931;44.874;-1.092;2023-04-09T00:20:00;101629.59;;;9.63;100.00
9784;BME280;4931;44.874;-1.092;2023-04-09T00:22:26;101640.06;;;9.49;100.00
9784;BME280;4931;44.874;-1.092;2023-04-09T00:24:51;101627.78;;;9.52;100.00
9784;BME280;4931;44.874;-1.092;2023-04-09T00:27:16;101634.34;;;9.51;100.00
9784;BME280;4931;44.874;-1.092;2023-04-09T00:29:42;101633.28;;;9.35;100.00
9784;BME280;4931;44.874;-1.092;2023-04-09T00:32:08;101630.63;;;9.23;100.00
9784;BME280;4931;44.874;-1.092;2023-04-09T00:34:33;101627.81;;;9.18;100.00
9784;BME280;4931;44.874;-1.092;2023-04-09T00:36:59;101624.91;;;9.07;100.00
9784;BME280;4931;44.874;-1.092;2023-04-09T00:39:24;101619.84;;;8.99;100.00
9784;BME280;4931;44.874;-1.092;2023-04-09T00:41:55;101622.03;;;8.97;100.00
9784;BME280;4931;44.874;-1.092;2023-04-09T00:44:22;101621.00;;;9.03;100.00
9784;BME280;4931;44.874;-1.092;2023-04-09T00:46:47;101614.03;;;8.95;100.00
9784;BME280;4931;44.874;-1.092;2023-04-09T00:49:12;101620.19;;;9.03;100.00
9784;BME280;4931;44.874;-1.092;2023-04-09T00:51:39;101623.19;;;9.01;100.00
9784;BME280;4931;44.874;-1.092;2023-04-09T00:54:05;101621.69;;;8.93;100.00
9784;BME280;4931;44.874;-1.092;2023-04-09T00:56:32;101622.31;;;8.84;100.00
9784;BME280;4931;44.874;-1.092;2023-04-09T00:58:58;101620.50;;;8.72;100.00
9784;BME280;4931;44.874;-1.092;2023-04-09T01:01:23;101615.59;;;8.74;100.00
9784;BME280;4931;44.874;-1.092;2023-04-09T01:03:49;101614.28;;;8.77;100.00
9784;BME280;4931;44.874;-1.092;2023-04-09T01:06:38;101611.22;;;8.73;100.00
9784;BME280;4931;44.874;-1.092;2023-04-09T01:17:25;101603.41;;;8.65;100.00
9784;BME280;4931;44.874;-1.092;2023-04-09T01:20:09;101605.06;;;8.66;100.00
9784;BME280;4931;44.874;-1.092;2023-04-09T01:26:08;101596.88;;;8.66;100.00
9784;BME280;4931;44.874;-1.092;2023-04-09T01:28:20;101595.78;;;8.67;100.00
9784;BME280;4931;44.874;-1.092;2023-04-09T01:30:48;101601.22;;;8.50;100.00
9784;BME280;4931;44.874;-1.092;2023-04-09T01:33:16;101599.00;;;8.35;100.00
9784;BME280;4931;44.874;-1.092;2023-04-09T01:35:45;101588.56;;;8.32;100.00
9784;BME280;4931;44.874;-1.092;2023-04-09T01:38:12;101594.03;;;8.32;100.00
9784;BME280;4931;44.874;-1.092;2023-04-09T01:40:39;101591.53;;;8.30;100.00
9784;BME280;4931;44.874;-1.092;2023-04-09T01:43:05;101592.84;;;8.28;100.00
9784;BME280;4931;44.874;-1.092;2023-04-09T01:45:33;101581.22;;;8.21;100.00
9784;BME280;4931;44.874;-1.092;2023-04-09T01:47:59;101590.22;;;8.04;100.00
9784;BME280;4931;44.874;-1.092;2023-04-09T01:50:25;101585.31;;;8.06;100.00
9784;BME280;4931;44.874;-1.092;2023-04-09T01:52:51;101592.94;;;8.04;100.00
9784;BME280;4931;44.874;-1.092;2023-04-09T01:55:17;101584.88;;;7.97;100.00
9784;BME280;4931;44.874;-1.092;2023-04-09T01:57:42;101592.59;;;8.01;100.00
9784;BME280;4931;44.874;-1.092;2023-04-09T02:00:09;101586.97;;;8.07;100.00
9784;BME280;4931;44.874;-1.092;2023-04-09T02:05:23;101591.72;;;8.12;100.00
9784;BME280;4931;44.874;-1.092;2023-04-09T02:07:55;101589.34;;;8.16;100.00
9784;BME280;4931;44.874;-1.092;2023-04-09T02:10:25;101583.53;;;8.12;100.00
9784;BME280;4931;44.874;-1.092;2023-04-09T02:12:52;101585.53;;;8.17;100.00
9784;BME280;4931;44.874;-1.092;2023-04-09T02:15:20;101586.41;;;8.05;100.00
9784;BME280;4931;44.874;-1.092;2023-04-09T02:17:46;101598.19;;;7.94;100.00
9784;BME280;4931;44.874;-1.092;2023-04-09T02:20:16;101593.22;;;7.91;100.00
9784;BME280;4931;44.874;-1.092;2023-04-09T02:22:41;101588.72;;;7.85;100.00
9784;BME280;4931;44.874;-1.092;2023-04-09T02:25:07;101588.03;;;7.77;100.00
9784;BME280;4931;44.874;-1.092;2023-04-09T02:27:32;101598.97;;;7.77;100.00
9784;BME280;4931;44.874;-1.092;2023-04-09T02:29:58;101590.97;;;7.76;100.00
9784;BME280;4931;44.874;-1.092;2023-04-09T02:32:23;101598.34;;;7.75;100.00
9784;BME280;4931;44.874;-1.092;2023-04-09T02:34:49;101596.13;;;7.72;100.00
9784;BME280;4931;44.874;-1.092;2023-04-09T02:37:14;101594.22;;;7.61;100.00
9784;BME280;4931;44.874;-1.092;2023-04-09T02:39:40;101592.69;;;7.53;100.00
9784;BME280;4931;44.874;-1.092;2023-04-09T02:42:05;101588.16;;;7.47;100.00
9784;BME280;4931;44.874;-1.092;2023-04-09T02:44:32;101583.31;;;7.37;100.00
9784;BME280;4931;44.874;-1.092;2023-04-09T02:46:57;101585.69;;;7.34;100.00
9784;BME280;4931;44.874;-1.092;2023-04-09T02:49:23;101591.03;;;7.40;100.00
9784;BME280;4931;44.874;-1.092;2023-04-09T02:51:48;101578.44;;;7.39;100.00
9784;BME280;4931;44.874;-1.092;2023-04-09T02:54:14;101582.81;;;7.52;100.00
9784;BME280;4931;44.874;-1.092;2023-04-09T02:56:39;101586.28;;;7.59;100.00
9784;BME280;4931;44.874;-1.092;2023-04-09T02:59:05;101586.63;;;7.63;100.00
9784;BME280;4931;44.874;-1.092;2023-04-09T03:01:30;101578.19;;;7.64;100.00
9784;BME280;4931;44.874;-1.092;2023-04-09T03:03:56;101575.00;;;7.56;100.00
9784;BME280;4931;44.874;-1.092;2023-04-09T03:06:21;101575.22;;;7.66;100.00
9784;BME280;4931;44.874;-1.092;2023-04-09T03:08:47;101584.69;;;7.75;100.00
9784;BME280;4931;44.874;-1.092;2023-04-09T03:11:12;101586.81;;;7.73;100.00
9784;BME280;4931;44.874;-1.092;2023-04-09T03:13:38;101585.19;;;7.72;100.00
9784;BME280;4931;44.874;-1.092;2023-04-09T03:16:03;101579.47;;;7.74;100.00
9784;BME280;4931;44.874;-1.092;2023-04-09T03:18:29;101580.91;;;7.76;100.00
9784;BME280;4931;44.874;-1.092;2023-04-09T03:20:55;101582.31;;;7.79;100.00
9784;BME280;4931;44.874;-1.092;2023-04-09T03:23:20;101585.31;;;7.77;100.00
9784;BME280;4931;44.874;-1.092;2023-04-09T03:25:46;101585.66;;;7.69;100.00
9784;BME280;4931;44.874;-1.092;2023-04-09T03:28:11;101582.47;;;7.72;100.00
9784;BME280;4931;44.874;-1.092;2023-04-09T03:30:37;101579.13;;;7.70;100.00
9784;BME280;4931;44.874;-1.092;2023-04-09T03:33:02;101583.88;;;7.75;100.00
9784;BME280;4931;44.874;-1.092;2023-04-09T03:35:28;101568.41;;;7.80;100.00
9784;BME280;4931;44.874;-1.092;2023-04-09T03:37:53;101577.44;;;7.81;100.00
9784;BME280;4931;44.874;-1.092;2023-04-09T03:40:18;101577.56;;;7.74;100.00
9784;BME280;4931;44.874;-1.092;2023-04-09T03:42:44;101579.72;;;7.72;100.00
9784;BME280;4931;44.874;-1.092;2023-04-09T03:45:10;101581.38;;;7.73;100.00
9784;BME280;4931;44.874;-1.092;2023-04-09T03:47:35;101572.97;;;7.75;100.00
9784;BME280;4931;44.874;-1.092;2023-04-09T03:50:01;101576.75;;;7.74;100.00
9784;BME280;4931;44.874;-1.092;2023-04-09T03:52:27;101575.69;;;7.75;100.00
9784;BME280;4931;44.874;-1.092;2023-04-09T03:54:52;101574.94;;;7.79;100.00
9784;BME280;4931;44.874;-1.092;2023-04-09T03:57:18;101569.28;;;7.69;100.00
9784;BME280;4931;44.874;-1.092;2023-04-09T03:59:43;101567.97;;;7.60;100.00
9784;BME280;4931;44.874;-1.092;2023-04-09T04:02:09;101563.25;;;7.55;100.00
9784;BME280;4931;44.874;-1.092;2023-04-09T04:04:35;101564.09;;;7.32;100.00
9784;BME280;4931;44.874;-1.092;2023-04-09T04:07:02;101561.25;;;7.27;100.00
9784;BME280;4931;44.874;-1.092;2023-04-09T04:09:27;101557.84;;;7.20;100.00
9784;BME280;4931;44.874;-1.092;2023-04-09T04:11:53;101562.91;;;7.04;100.00
9784;BME280;4931;44.874;-1.092;2023-04-09T04:14:20;101558.28;;;6.93;100.00
9784;BME280;4931;44.874;-1.092;2023-04-09T04:16:45;101563.97;;;7.03;100.00
9784;BME280;4931;44.874;-1.092;2023-04-09T04:19:11;101568.94;;;7.06;100.00
9784;BME280;4931;44.874;-1.092;2023-04-09T04:21:36;101570.38;;;6.97;100.00
9784;BME280;4931;44.874;-1.092;2023-04-09T04:24:01;101575.03;;;7.08;100.00
9784;BME280;4931;44.874;-1.092;2023-04-09T04:26:27;101588.41;;;7.10;100.00
9784;BME280;4931;44.874;-1.092;2023-04-09T04:28:52;101577.38;;;7.17;100.00
9784;BME280;4931;44.874;-1.092;2023-04-09T04:31:18;101578.00;;;7.19;100.00
9784;BME280;4931;44.874;-1.092;2023-04-09T04:33:43;101586.75;;;7.21;100.00
9784;BME280;4931;44.874;-1.092;2023-04-09T04:36:12;101596.13;;;7.25;100.00
9784;BME280;4931;44.874;-1.092;2023-04-09T04:38:39;101597.34;;;7.29;100.00
9784;BME280;4931;44.874;-1.092;2023-04-09T04:41:09;101594.25;;;7.25;100.00
9784;BME280;4931;44.874;-1.092;2023-04-09T04:43:35;101593.31;;;7.20;100.00
9784;BME280;4931;44.874;-1.092;2023-04-09T04:46:00;101599.22;;;7.17;100.00
9784;BME280;4931;44.874;-1.092;2023-04-09T04:48:27;101595.06;;;7.14;100.00
9784;BME280;4931;44.874;-1.092;2023-04-09T04:50:57;101600.28;;;7.15;100.00
9784;BME280;4931;44.874;-1.092;2023-04-09T04:53:23;101596.84;;;7.08;100.00
9784;BME280;4931;44.874;-1.092;2023-04-09T04:55:48;101595.03;;;6.90;100.00
9784;BME280;4931;44.874;-1.092;2023-04-09T04:58:14;101596.69;;;6.79;100.00
9784;BME280;4931;44.874;-1.092;2023-04-09T05:00:39;101600.81;;;6.70;100.00
9784;BME280;4931;44.874;-1.092;2023-04-09T05:03:04;101596.66;;;6.68;100.00
9784;BME280;4931;44.874;-1.092;2023-04-09T05:05:30;101594.88;;;6.73;100.00
9784;BME280;4931;44.874;-1.092;2023-04-09T05:07:56;101601.53;;;6.77;100.00
9784;BME280;4931;44.874;-1.092;2023-04-09T05:10:21;101600.72;;;6.77;100.00
9784;BME280;4931;44.874;-1.092;2023-04-09T05:12:47;101605.69;;;6.80;100.00
9784;BME280;4931;44.874;-1.092;2023-04-09T05:15:12;101605.25;;;6.83;100.00
9784;BME280;4931;44.874;-1.092;2023-04-09T05:17:41;101602.84;;;6.87;100.00
9784;BME280;4931;44.874;-1.092;2023-04-09T05:20:08;101605.13;;;6.90;100.00
9784;BME280;4931;44.874;-1.092;2023-04-09T05:22:33;101612.25;;;6.91;100.00
9784;BME280;4931;44.874;-1.092;2023-04-09T05:25:00;101610.31;;;6.79;100.00
9784;BME280;4931;44.874;-1.092;2023-04-09T05:27:26;101604.13;;;6.72;100.00
9784;BME280;4931;44.874;-1.092;2023-04-09T05:29:52;101614.81;;;6.74;100.00
9784;BME280;4931;44.874;-1.092;2023-04-09T05:32:18;101608.84;;;6.65;100.00
9784;BME280;4931;44.874;-1.092;2023-04-09T05:34:43;101614.66;;;6.57;100.00
9784;BME280;4931;44.874;-1.092;2023-04-09T05:37:09;101615.22;;;6.59;100.00
9784;BME280;4931;44.874;-1.092;2023-04-09T05:39:38;101609.50;;;6.48;100.00
9784;BME280;4931;44.874;-1.092;2023-04-09T05:42:03;101614.38;;;6.46;100.00
9784;BME280;4931;44.874;-1.092;2023-04-09T05:44:29;101617.25;;;6.52;100.00
9784;BME280;4931;44.874;-1.092;2023-04-09T05:46:54;101624.56;;;6.51;100.00
9784;BME280;4931;44.874;-1.092;2023-04-09T05:49:21;101646.28;;;6.58;100.00
9784;BME280;4931;44.874;-1.092;2023-04-09T05:51:46;101639.19;;;6.57;100.00
9784;BME280;4931;44.874;-1.092;2023-04-09T05:54:12;101642.06;;;6.62;100.00
9784;BME280;4931;44.874;-1.092;2023-04-09T05:56:37;101653.22;;;6.72;100.00
9784;BME280;4931;44.874;-1.092;2023-04-09T05:59:03;101650.63;;;6.77;100.00
9784;BME280;4931;44.874;-1.092;2023-04-09T06:01:29;101650.03;;;6.75;100.00
9784;BME280;4931;44.874;-1.092;2023-04-09T06:03:54;101656.22;;;6.82;100.00
9784;BME280;4931;44.874;-1.092;2023-04-09T06:06:20;101645.06;;;6.84;100.00
9784;BME280;4931;44.874;-1.092;2023-04-09T06:08:45;101645.53;;;6.81;100.00
9784;BME280;4931;44.874;-1.092;2023-04-09T06:11:12;101650.63;;;6.77;100.00
9784;BME280;4931;44.874;-1.092;2023-04-09T06:13:37;101649.31;;;6.80;100.00
9784;BME280;4931;44.874;-1.092;2023-04-09T06:16:07;101647.31;;;6.75;100.00
9784;BME280;4931;44.874;-1.092;2023-04-09T06:18:33;101643.97;;;6.73;100.00
9784;BME280;4931;44.874;-1.092;2023-04-09T06:21:03;101640.09;;;6.81;100.00
9784;BME280;4931;44.874;-1.092;2023-04-09T06:23:28;101649.59;;;6.90;100.00
9784;BME280;4931;44.874;-1.092;2023-04-09T06:25:54;101659.47;;;7.03;100.00
9784;BME280;4931;44.874;-1.092;2023-04-09T06:28:20;101660.19;;;7.10;100.00
9784;BME280;4931;44.874;-1.092;2023-04-09T06:30:45;101653.44;;;7.13;100.00
9784;BME280;4931;44.874;-1.092;2023-04-09T06:33:11;101660.09;;;7.17;100.00
9784;BME280;4931;44.874;-1.092;2023-04-09T06:35:36;101660.00;;;7.24;100.00
9784;BME280;4931;44.874;-1.092;2023-04-09T06:38:02;101656.53;;;7.17;100.00
9784;BME280;4931;44.874;-1.092;2023-04-09T06:40:27;101660.81;;;7.24;100.00
9784;BME280;4931;44.874;-1.092;2023-04-09T06:42:53;101659.25;;;7.17;100.00
9784;BME280;4931;44.874;-1.092;2023-04-09T06:45:18;101653.09;;;7.09;100.00
9784;BME280;4931;44.874;-1.092;2023-04-09T06:47:44;101653.44;;;7.13;100.00
9784;BME280;4931;44.874;-1.092;2023-04-09T06:50:09;101661.19;;;7.28;100.00
9784;BME280;4931;44.874;-1.092;2023-04-09T06:52:35;101666.28;;;7.48;100.00
9784;BME280;4931;44.874;-1.092;2023-04-09T06:55:00;101670.56;;;7.56;100.00
9784;BME280;4931;44.874;-1.092;2023-04-09T06:57:26;101667.59;;;7.69;100.00
9784;BME280;4931;44.874;-1.092;2023-04-09T06:59:51;101674.69;;;7.94;100.00
9784;BME280;4931;44.874;-1.092;2023-04-09T07:02:17;101671.34;;;8.16;100.00
9784;BME280;4931;44.874;-1.092;2023-04-09T07:04:42;101670.03;;;8.59;100.00
9784;BME280;4931;44.874;-1.092;2023-04-09T07:07:08;101670.03;;;9.22;100.00
9784;BME280;4931;44.874;-1.092;2023-04-09T07:09:33;101679.19;;;9.61;100.00
9784;BME280;4931;44.874;-1.092;2023-04-09T07:11:58;101681.16;;;9.32;100.00
9784;BME280;4931;44.874;-1.092;2023-04-09T07:14:24;101677.25;;;9.28;100.00
9784;BME280;4931;44.874;-1.092;2023-04-09T07:16:50;101667.97;;;9.29;100.00
9784;BME280;4931;44.874;-1.092;2023-04-09T07:19:15;101682.72;;;9.62;100.00
9784;BME280;4931;44.874;-1.092;2023-04-09T07:21:41;101673.94;;;10.21;100.00
9784;BME280;4931;44.874;-1.092;2023-04-09T07:24:06;101677.13;;;10.85;100.00
9784;BME280;4931;44.874;-1.092;2023-04-09T07:26:32;101676.41;;;11.22;100.00
9784;BME280;4931;44.874;-1.092;2023-04-09T07:28:57;101672.31;;;11.67;100.00
9784;BME280;4931;44.874;-1.092;2023-04-09T07:31:23;101672.06;;;12.11;100.00
9784;BME280;4931;44.874;-1.092;2023-04-09T07:33:49;101673.59;;;12.50;100.00
9784;BME280;4931;44.874;-1.092;2023-04-09T07:36:14;101672.84;;;12.91;100.00
9784;BME280;4931;44.874;-1.092;2023-04-09T07:38:40;101684.97;;;13.26;100.00
9784;BME280;4931;44.874;-1.092;2023-04-09T07:41:05;101670.94;;;13.48;100.00
9784;BME280;4931;44.874;-1.092;2023-04-09T07:43:31;101673.97;;;13.67;100.00
9784;BME280;4931;44.874;-1.092;2023-04-09T07:45:57;101670.66;;;13.60;100.00
9784;BME280;4931;44.874;-1.092;2023-04-09T07:48:22;101672.28;;;13.76;100.00
9784;BME280;4931;44.874;-1.092;2023-04-09T07:50:48;101660.63;;;14.00;100.00
9784;BME280;4931;44.874;-1.092;2023-04-09T07:53:13;101658.84;;;15.20;100.00
9784;BME280;4931;44.874;-1.092;2023-04-09T07:55:39;101654.94;;;14.41;100.00
9784;BME280;4931;44.874;-1.092;2023-04-09T07:58:05;101660.72;;;13.59;100.00
9784;BME280;4931;44.874;-1.092;2023-04-09T08:00:31;101667.34;;;13.32;100.00
9784;BME280;4931;44.874;-1.092;2023-04-09T08:02:57;101657.13;;;13.22;100.00
9784;BME280;4931;44.874;-1.092;2023-04-09T08:05:23;101658.81;;;13.18;100.00
9784;BME280;4931;44.874;-1.092;2023-04-09T08:07:52;101655.75;;;13.66;100.00
9784;BME280;4931;44.874;-1.092;2023-04-09T08:10:17;101655.03;;;14.21;100.00
9784;BME280;4931;44.874;-1.092;2023-04-09T08:12:43;101658.69;;;14.61;100.00
9784;BME280;4931;44.874;-1.092;2023-04-09T08:15:09;101658.56;;;14.37;100.00
9784;BME280;4931;44.874;-1.092;2023-04-09T08:17:35;101659.41;;;14.27;100.00
9784;BME280;4931;44.874;-1.092;2023-04-09T08:20:04;101669.47;;;13.92;100.00
9784;BME280;4931;44.874;-1.092;2023-04-09T08:22:30;101664.53;;;13.89;100.00
9784;BME280;4931;44.874;-1.092;2023-04-09T08:24:56;101666.47;;;13.93;100.00
9784;BME280;4931;44.874;-1.092;2023-04-09T08:27:23;101668.94;;;13.85;100.00
9784;BME280;4931;44.874;-1.092;2023-04-09T08:29:48;101668.97;;;13.69;100.00
9784;BME280;4931;44.874;-1.092;2023-04-09T08:32:14;101670.09;;;13.63;100.00
9784;BME280;4931;44.874;-1.092;2023-04-09T08:34:40;101666.75;;;13.87;100.00
9784;BME280;4931;44.874;-1.092;2023-04-09T08:37:05;101672.06;;;14.38;100.00
9784;BME280;4931;44.874;-1.092;2023-04-09T08:39:31;101675.59;;;14.99;100.00
9784;BME280;4931;44.874;-1.092;2023-04-09T08:41:58;101672.00;;;15.63;100.00
9784;BME280;4931;44.874;-1.092;2023-04-09T08:44:27;101675.28;;;15.94;100.00
9784;BME280;4931;44.874;-1.092;2023-04-09T08:46:53;101684.94;;;16.64;100.00
9784;BME280;4931;44.874;-1.092;2023-04-09T08:49:19;101690.56;;;17.16;100.00
9784;BME280;4931;44.874;-1.092;2023-04-09T08:51:46;101683.34;;;17.34;100.00
9784;BME280;4931;44.874;-1.092;2023-04-09T08:54:14;101672.16;;;17.39;100.00
9784;BME280;4931;44.874;-1.092;2023-04-09T08:56:41;101673.19;;;17.43;100.00
9784;BME280;4931;44.874;-1.092;2023-04-09T08:59:08;101670.13;;;17.59;100.00
9784;BME280;4931;44.874;-1.092;2023-04-09T09:01:33;101671.59;;;17.84;100.00
9784;BME280;4931;44.874;-1.092;2023-04-09T09:04:07;101686.03;;;18.28;100.00
9784;BME280;4931;44.874;-1.092;2023-04-09T09:06:39;101690.91;;;18.59;100.00
9784;BME280;4931;44.874;-1.092;2023-04-09T09:09:09;101690.06;;;18.72;100.00
9784;BME280;4931;44.874;-1.092;2023-04-09T09:11:46;101687.38;;;18.95;100.00
9784;BME280;4931;44.874;-1.092;2023-04-09T09:14:14;101683.75;;;19.40;100.00
9784;BME280;4931;44.874;-1.092;2023-04-09T09:16:42;101682.25;;;19.65;100.00
9784;BME280;4931;44.874;-1.092;2023-04-09T09:19:09;101682.47;;;19.46;92.22
9784;BME280;4931;44.874;-1.092;2023-04-09T09:22:02;101686.38;;;19.99;91.48
9784;BME280;4931;44.874;-1.092;2023-04-09T09:24:27;101677.31;;;20.43;87.33
9784;BME280;4931;44.874;-1.092;2023-04-09T09:26:53;101672.19;;;20.27;82.75
9784;BME280;4931;44.874;-1.092;2023-04-09T09:29:20;101669.97;;;20.55;82.25
9784;BME280;4931;44.874;-1.092;2023-04-09T09:31:47;101671.28;;;20.67;77.27
9784;BME280;4931;44.874;-1.092;2023-04-09T09:34:14;101666.25;;;20.78;72.15
9784;BME280;4931;44.874;-1.092;2023-04-09T09:36:41;101660.66;;;20.78;73.19
9784;BME280;4931;44.874;-1.092;2023-04-09T09:39:06;101666.53;;;21.02;72.28
9784;BME280;4931;44.874;-1.092;2023-04-09T09:41:36;101665.25;;;20.91;66.33
9784;BME280;4931;44.874;-1.092;2023-04-09T09:44:02;101665.56;;;21.16;66.93
9784;BME280;4931;44.874;-1.092;2023-04-09T09:46:33;101678.13;;;21.57;62.68
9784;BME280;4931;44.874;-1.092;2023-04-09T09:48:59;101664.25;;;22.17;56.99
9784;BME280;4931;44.874;-1.092;2023-04-09T09:51:25;101676.34;;;21.44;48.87
9784;BME280;4931;44.874;-1.092;2023-04-09T09:53:55;101672.09;;;21.85;53.71
9784;BME280;4931;44.874;-1.092;2023-04-09T09:56:23;101671.81;;;22.46;54.60
9784;BME280;4931;44.874;-1.092;2023-04-09T09:59:15;101679.22;;;23.05;50.85
9784;BME280;4931;44.874;-1.092;2023-04-09T10:01:45;101670.97;;;23.30;44.52
9784;BME280;4931;44.874;-1.092;2023-04-09T10:04:13;101672.09;;;23.17;39.17
9784;BME280;4931;44.874;-1.092;2023-04-09T10:06:44;101685.72;;;22.25;35.11
9784;BME280;4931;44.874;-1.092;2023-04-09T10:09:10;101666.44;;;22.32;35.87
9784;BME280;4931;44.874;-1.092;2023-04-09T10:11:36;101671.47;;;22.48;33.56
9784;BME280;4931;44.874;-1.092;2023-04-09T10:14:03;101664.00;;;22.94;35.10
9784;BME280;4931;44.874;-1.092;2023-04-09T10:16:31;101661.03;;;22.57;30.61
9784;BME280;4931;44.874;-1.092;2023-04-09T10:18:58;101652.31;;;22.59;30.53
9784;BME280;4931;44.874;-1.092;2023-04-09T10:21:37;101646.84;;;22.41;30.13
9784;BME280;4931;44.874;-1.092;2023-04-09T10:24:07;101653.09;;;23.01;32.62
9784;BME280;4931;44.874;-1.092;2023-04-09T10:26:34;101655.31;;;23.17;30.00
9784;BME280;4931;44.874;-1.092;2023-04-09T10:29:26;101652.09;;;23.40;28.25
9784;BME280;4931;44.874;-1.092;2023-04-09T10:31:53;101647.81;;;23.79;25.34
9784;BME280;4931;44.874;-1.092;2023-04-09T10:34:21;101647.72;;;24.00;25.83
9784;BME280;4931;44.874;-1.092;2023-04-09T10:36:54;101637.91;;;24.19;24.81
9784;BME280;4931;44.874;-1.092;2023-04-09T10:39:21;101639.31;;;24.00;25.48
9784;BME280;4931;44.874;-1.092;2023-04-09T10:41:50;101629.78;;;24.14;22.83
9784;BME280;4931;44.874;-1.092;2023-04-09T10:44:25;101633.97;;;23.95;22.79
9784;BME280;4931;44.874;-1.092;2023-04-09T10:46:54;101629.25;;;24.24;23.75
9784;BME280;4931;44.874;-1.092;2023-04-09T10:49:24;101619.13;;;24.60;23.45
9784;BME280;4931;44.874;-1.092;2023-04-09T10:52:07;101625.63;;;24.77;23.04
9784;BME280;4931;44.874;-1.092;2023-04-09T10:54:36;101620.16;;;23.78;22.74
9784;BME280;4931;44.874;-1.092;2023-04-09T10:57:18;101620.13;;;24.40;23.17
9784;BME280;4931;44.874;-1.092;2023-04-09T10:59:46;101620.13;;;24.40;23.87
9784;BME280;4931;44.874;-1.092;2023-04-09T11:07:26;101620.09;;;24.64;23.47
9784;BME280;4931;44.874;-1.092;2023-04-09T11:09:54;101618.47;;;24.92;23.08
9784;BME280;4931;44.874;-1.092;2023-04-09T11:12:19;101624.59;;;24.28;20.82
9784;BME280;4931;44.874;-1.092;2023-04-09T11:14:45;101617.88;;;24.45;21.82
9784;BME280;4931;44.874;-1.092;2023-04-09T11:17:11;101623.72;;;24.93;20.77
9784;BME280;4931;44.874;-1.092;2023-04-09T11:19:37;101623.38;;;24.66;19.35
9784;BME280;4931;44.874;-1.092;2023-04-09T11:22:04;101623.19;;;25.03;19.93
9784;BME280;4931;44.874;-1.092;2023-04-09T11:27:06;101620.47;;;25.51;19.30
9784;BME280;4931;44.874;-1.092;2023-04-09T11:29:33;101626.81;;;25.80;19.87
9784;BME280;4931;44.874;-1.092;2023-04-09T11:31:59;101615.69;;;25.52;18.68
9784;BME280;4931;44.874;-1.092;2023-04-09T11:34:27;101623.38;;;25.55;19.85
9784;BME280;4931;44.874;-1.092;2023-04-09T11:36:53;101617.38;;;25.41;18.75
9784;BME280;4931;44.874;-1.092;2023-04-09T11:39:19;101619.13;;;24.60;19.20
9784;BME280;4931;44.874;-1.092;2023-04-09T11:41:44;101622.09;;;25.08;19.05
9784;BME280;4931;44.874;-1.092;2023-04-09T11:44:11;101617.75;;;25.11;18.49
9784;BME280;4931;44.874;-1.092;2023-04-09T11:46:37;101623.00;;;25.73;19.41
9784;BME280;4931;44.874;-1.092;2023-04-09T11:49:03;101626.28;;;25.75;18.31
9784;BME280;4931;44.874;-1.092;2023-04-09T11:51:29;101624.28;;;25.91;18.81
9784;BME280;4931;44.874;-1.092;2023-04-09T11:54:02;101627.69;;;26.00;17.94
9784;BME280;4931;44.874;-1.092;2023-04-09T11:56:29;101629.25;;;26.14;18.61
9784;BME280;4931;44.874;-1.092;2023-04-09T11:58:56;101623.44;;;25.91;16.10
9784;BME280;4931;44.874;-1.092;2023-04-09T12:01:21;101618.75;;;26.11;17.38
9784;BME280;4931;44.874;-1.092;2023-04-09T12:03:53;101618.66;;;26.07;17.93
9784;BME280;4931;44.874;-1.092;2023-04-09T12:06:20;101618.00;;;25.34;17.34
9784;BME280;4931;44.874;-1.092;2023-04-09T12:08:53;101616.66;;;25.44;17.15
9784;BME280;4931;44.874;-1.092;2023-04-09T12:11:19;101614.16;;;25.39;17.30
9784;BME280;4931;44.874;-1.092;2023-04-09T12:13:58;101610.06;;;25.68;18.35
9784;BME280;4931;44.874;-1.092;2023-04-09T12:16:23;101606.88;;;25.69;17.06
9784;BME280;4931;44.874;-1.092;2023-04-09T12:18:49;101602.00;;;25.66;16.22
9784;BME280;4931;44.874;-1.092;2023-04-09T12:21:14;101612.69;;;25.77;17.46
9784;BME280;4931;44.874;-1.092;2023-04-09T12:23:41;101614.47;;;25.85;17.52
9784;BME280;4931;44.874;-1.092;2023-04-09T12:26:07;101605.31;;;25.88;17.57
9784;BME280;4931;44.874;-1.092;2023-04-09T12:28:32;101612.09;;;25.87;16.85
9784;BME280;4931;44.874;-1.092;2023-04-09T12:30:58;101610.63;;;26.25;17.03
9784;BME280;4931;44.874;-1.092;2023-04-09T12:33:24;101606.13;;;26.05;16.86
9784;BME280;4931;44.874;-1.092;2023-04-09T12:35:49;101604.53;;;26.23;17.02
9784;BME280;4931;44.874;-1.092;2023-04-09T12:38:15;101607.03;;;25.93;16.89
9784;BME280;4931;44.874;-1.092;2023-04-09T12:40:40;101604.31;;;25.96;17.33
9784;BME280;4931;44.874;-1.092;2023-04-09T12:43:06;101599.38;;;26.25;16.35
9784;BME280;4931;44.874;-1.092;2023-04-09T12:45:31;101601.00;;;26.46;17.82
9784;BME280;4931;44.874;-1.092;2023-04-09T12:47:57;101599.25;;;26.38;17.14
9784;BME280;4931;44.874;-1.092;2023-04-09T12:50:23;101602.78;;;26.54;17.04
9784;BME280;4931;44.874;-1.092;2023-04-09T12:52:48;101603.09;;;26.88;18.13
9784;BME280;4931;44.874;-1.092;2023-04-09T12:55:15;101601.75;;;27.02;18.85
9784;BME280;4931;44.874;-1.092;2023-04-09T12:57:44;101605.69;;;26.97;20.35
9784;BME280;4931;44.874;-1.092;2023-04-09T13:00:11;101607.16;;;26.91;20.38
9784;BME280;4931;44.874;-1.092;2023-04-09T13:02:37;101590.66;;;26.70;19.48
9784;BME280;4931;44.874;-1.092;2023-04-09T13:05:03;101600.63;;;26.47;20.14
9784;BME280;4931;44.874;-1.092;2023-04-09T13:07:29;101608.00;;;26.91;21.68
9784;BME280;4931;44.874;-1.092;2023-04-09T13:09:55;101601.47;;;27.07;22.38
9784;BME280;4931;44.874;-1.092;2023-04-09T13:12:21;101603.25;;;26.95;22.38
9784;BME280;4931;44.874;-1.092;2023-04-09T13:14:47;101601.75;;;27.02;21.23
9784;BME280;4931;44.874;-1.092;2023-04-09T13:17:13;101600.13;;;26.61;23.31